<?xml version="1.0" encoding="UTF-8" standalone="no" ?>
<gpx xmlns="http://www.topografix.com/GPX/1/1" xmlns:xsi="http://www.w3.org/2001/XMLSchema-instance" xsi:schemaLocation="http://www.topografix.com/GPX/1/1 http://www.topografix.com/GPX/1/1/gpx.xsd" version="1.1" creator="VisuGPX - https://www.visugpx.com">
  <metadata>
    <name>Vacances 2021</name>
  </metadata>
  <trk>
    <name><![CDATA[Journal actif: 2021-07-20 08:45]]></name>
    <trkseg>
      <trkpt lat="48.93601" lon="7.88224">
        <ele>139.05</ele>
        <time>2021-07-20T10:45:15Z</time>
      </trkpt>
      <trkpt lat="48.936" lon="7.88224">
        <ele>136.64</ele>
        <time>2021-07-20T10:45:44Z</time>
      </trkpt>
      <trkpt lat="48.93598" lon="7.88221">
        <ele>136.16</ele>
        <time>2021-07-20T10:45:48Z</time>
      </trkpt>
      <trkpt lat="48.93593" lon="7.88215">
        <ele>133.76</ele>
        <time>2021-07-20T10:45:52Z</time>
      </trkpt>
      <trkpt lat="48.93595" lon="7.88216">
        <ele>132.8</ele>
        <time>2021-07-20T10:46:04Z</time>
      </trkpt>
      <trkpt lat="48.93595" lon="7.88216">
        <ele>132.32</ele>
        <time>2021-07-20T10:47:01Z</time>
      </trkpt>
      <trkpt lat="48.93595" lon="7.88217">
        <ele>132.32</ele>
        <time>2021-07-20T10:49:31Z</time>
      </trkpt>
      <trkpt lat="48.93595" lon="7.88218">
        <ele>132.8</ele>
        <time>2021-07-20T10:51:36Z</time>
      </trkpt>
      <trkpt lat="48.93595" lon="7.88219">
        <ele>132.8</ele>
        <time>2021-07-20T10:53:54Z</time>
      </trkpt>
      <trkpt lat="48.93595" lon="7.8822">
        <ele>133.28</ele>
        <time>2021-07-20T10:56:10Z</time>
      </trkpt>
      <trkpt lat="48.93595" lon="7.88219">
        <ele>133.76</ele>
        <time>2021-07-20T10:58:33Z</time>
      </trkpt>
      <trkpt lat="48.93595" lon="7.88219">
        <ele>134.24</ele>
        <time>2021-07-20T11:02:13Z</time>
      </trkpt>
      <trkpt lat="48.93595" lon="7.8822">
        <ele>134.72</ele>
        <time>2021-07-20T11:05:59Z</time>
      </trkpt>
      <trkpt lat="48.93595" lon="7.88219">
        <ele>135.68</ele>
        <time>2021-07-20T11:10:26Z</time>
      </trkpt>
      <trkpt lat="48.93595" lon="7.88219">
        <ele>136.16</ele>
        <time>2021-07-20T11:12:44Z</time>
      </trkpt>
      <trkpt lat="48.93595" lon="7.88219">
        <ele>136.64</ele>
        <time>2021-07-20T11:15:18Z</time>
      </trkpt>
      <trkpt lat="48.93595" lon="7.88219">
        <ele>137.13</ele>
        <time>2021-07-20T11:18:10Z</time>
      </trkpt>
      <trkpt lat="48.93596" lon="7.88219">
        <ele>138.09</ele>
        <time>2021-07-20T11:21:03Z</time>
      </trkpt>
      <trkpt lat="48.93596" lon="7.88219">
        <ele>138.57</ele>
        <time>2021-07-20T11:23:10Z</time>
      </trkpt>
      <trkpt lat="48.93601" lon="7.88221">
        <ele>139.53</ele>
        <time>2021-07-20T11:25:07Z</time>
      </trkpt>
      <trkpt lat="48.93602" lon="7.8822">
        <ele>139.53</ele>
        <time>2021-07-20T11:25:17Z</time>
      </trkpt>
      <trkpt lat="48.93626" lon="7.88183">
        <ele>140.01</ele>
        <time>2021-07-20T11:25:33Z</time>
      </trkpt>
      <trkpt lat="48.93595" lon="7.88184">
        <ele>138.57</ele>
        <time>2021-07-20T11:25:42Z</time>
      </trkpt>
      <trkpt lat="48.93589" lon="7.88216">
        <ele>139.05</ele>
        <time>2021-07-20T11:25:55Z</time>
      </trkpt>
      <trkpt lat="48.93578" lon="7.88264">
        <ele>140.01</ele>
        <time>2021-07-20T11:26:09Z</time>
      </trkpt>
      <trkpt lat="48.93578" lon="7.88275">
        <ele>140.49</ele>
        <time>2021-07-20T11:26:36Z</time>
      </trkpt>
      <trkpt lat="48.93584" lon="7.88299">
        <ele>140.49</ele>
        <time>2021-07-20T11:26:50Z</time>
      </trkpt>
      <trkpt lat="48.93572" lon="7.88362">
        <ele>141.45</ele>
        <time>2021-07-20T11:27:04Z</time>
      </trkpt>
      <trkpt lat="48.93557" lon="7.88405">
        <ele>142.41</ele>
        <time>2021-07-20T11:27:17Z</time>
      </trkpt>
      <trkpt lat="48.93555" lon="7.88413">
        <ele>142.41</ele>
        <time>2021-07-20T11:27:22Z</time>
      </trkpt>
      <trkpt lat="48.93518" lon="7.88406">
        <ele>143.37</ele>
        <time>2021-07-20T11:27:31Z</time>
      </trkpt>
      <trkpt lat="48.93493" lon="7.88392">
        <ele>145.3</ele>
        <time>2021-07-20T11:27:37Z</time>
      </trkpt>
      <trkpt lat="48.93489" lon="7.8839">
        <ele>145.3</ele>
        <time>2021-07-20T11:27:38Z</time>
      </trkpt>
      <trkpt lat="48.93485" lon="7.88388">
        <ele>145.3</ele>
        <time>2021-07-20T11:27:39Z</time>
      </trkpt>
      <trkpt lat="48.93465" lon="7.88379">
        <ele>146.74</ele>
        <time>2021-07-20T11:27:43Z</time>
      </trkpt>
      <trkpt lat="48.93456" lon="7.88376">
        <ele>147.22</ele>
        <time>2021-07-20T11:27:45Z</time>
      </trkpt>
      <trkpt lat="48.93439" lon="7.88374">
        <ele>147.7</ele>
        <time>2021-07-20T11:27:48Z</time>
      </trkpt>
      <trkpt lat="48.93433" lon="7.88374">
        <ele>147.7</ele>
        <time>2021-07-20T11:27:49Z</time>
      </trkpt>
      <trkpt lat="48.93433" lon="7.88374">
        <ele>147.22</ele>
        <time>2021-07-20T11:27:50Z</time>
      </trkpt>
      <trkpt lat="48.93428" lon="7.88379">
        <ele>147.22</ele>
        <time>2021-07-20T11:27:51Z</time>
      </trkpt>
      <trkpt lat="48.93422" lon="7.88384">
        <ele>147.22</ele>
        <time>2021-07-20T11:27:52Z</time>
      </trkpt>
      <trkpt lat="48.93416" lon="7.88389">
        <ele>146.74</ele>
        <time>2021-07-20T11:27:53Z</time>
      </trkpt>
      <trkpt lat="48.9341" lon="7.88394">
        <ele>146.74</ele>
        <time>2021-07-20T11:27:54Z</time>
      </trkpt>
      <trkpt lat="48.93404" lon="7.88399">
        <ele>147.22</ele>
        <time>2021-07-20T11:27:55Z</time>
      </trkpt>
      <trkpt lat="48.93312" lon="7.8851">
        <ele>147.7</ele>
        <time>2021-07-20T11:28:09Z</time>
      </trkpt>
      <trkpt lat="48.93219" lon="7.88652">
        <ele>149.62</ele>
        <time>2021-07-20T11:28:21Z</time>
      </trkpt>
      <trkpt lat="48.93205" lon="7.88695">
        <ele>151.06</ele>
        <time>2021-07-20T11:28:23Z</time>
      </trkpt>
      <trkpt lat="48.93202" lon="7.88709">
        <ele>152.03</ele>
        <time>2021-07-20T11:28:24Z</time>
      </trkpt>
      <trkpt lat="48.93173" lon="7.8885">
        <ele>153.47</ele>
        <time>2021-07-20T11:28:35Z</time>
      </trkpt>
      <trkpt lat="48.93155" lon="7.88938">
        <ele>153.47</ele>
        <time>2021-07-20T11:28:43Z</time>
      </trkpt>
      <trkpt lat="48.93154" lon="7.88941">
        <ele>153.47</ele>
        <time>2021-07-20T11:29:01Z</time>
      </trkpt>
      <trkpt lat="48.9314" lon="7.89016">
        <ele>154.43</ele>
        <time>2021-07-20T11:29:10Z</time>
      </trkpt>
      <trkpt lat="48.93101" lon="7.89224">
        <ele>157.79</ele>
        <time>2021-07-20T11:29:24Z</time>
      </trkpt>
      <trkpt lat="48.93055" lon="7.89472">
        <ele>159.72</ele>
        <time>2021-07-20T11:29:37Z</time>
      </trkpt>
      <trkpt lat="48.93043" lon="7.89511">
        <ele>157.79</ele>
        <time>2021-07-20T11:29:41Z</time>
      </trkpt>
      <trkpt lat="48.93038" lon="7.89524">
        <ele>157.31</ele>
        <time>2021-07-20T11:29:42Z</time>
      </trkpt>
      <trkpt lat="48.93031" lon="7.89536">
        <ele>156.35</ele>
        <time>2021-07-20T11:29:43Z</time>
      </trkpt>
      <trkpt lat="48.93025" lon="7.89546">
        <ele>156.83</ele>
        <time>2021-07-20T11:29:44Z</time>
      </trkpt>
      <trkpt lat="48.93008" lon="7.89563">
        <ele>157.31</ele>
        <time>2021-07-20T11:29:45Z</time>
      </trkpt>
      <trkpt lat="48.93008" lon="7.89563">
        <ele>156.83</ele>
        <time>2021-07-20T11:29:46Z</time>
      </trkpt>
      <trkpt lat="48.92964" lon="7.89599">
        <ele>156.83</ele>
        <time>2021-07-20T11:29:52Z</time>
      </trkpt>
      <trkpt lat="48.92959" lon="7.89603">
        <ele>156.83</ele>
        <time>2021-07-20T11:29:53Z</time>
      </trkpt>
      <trkpt lat="48.92955" lon="7.89605">
        <ele>156.83</ele>
        <time>2021-07-20T11:29:54Z</time>
      </trkpt>
      <trkpt lat="48.92918" lon="7.89593">
        <ele>157.31</ele>
        <time>2021-07-20T11:30:00Z</time>
      </trkpt>
      <trkpt lat="48.92912" lon="7.89592">
        <ele>157.31</ele>
        <time>2021-07-20T11:30:01Z</time>
      </trkpt>
      <trkpt lat="48.92907" lon="7.8959">
        <ele>157.79</ele>
        <time>2021-07-20T11:30:02Z</time>
      </trkpt>
      <trkpt lat="48.92897" lon="7.89585">
        <ele>157.79</ele>
        <time>2021-07-20T11:30:03Z</time>
      </trkpt>
      <trkpt lat="48.92897" lon="7.89585">
        <ele>157.79</ele>
        <time>2021-07-20T11:30:04Z</time>
      </trkpt>
      <trkpt lat="48.92893" lon="7.8958">
        <ele>158.27</ele>
        <time>2021-07-20T11:30:05Z</time>
      </trkpt>
      <trkpt lat="48.92888" lon="7.8957">
        <ele>158.27</ele>
        <time>2021-07-20T11:30:06Z</time>
      </trkpt>
      <trkpt lat="48.92888" lon="7.8957">
        <ele>158.27</ele>
        <time>2021-07-20T11:30:07Z</time>
      </trkpt>
      <trkpt lat="48.92883" lon="7.89574">
        <ele>158.75</ele>
        <time>2021-07-20T11:30:08Z</time>
      </trkpt>
      <trkpt lat="48.9288" lon="7.89577">
        <ele>158.75</ele>
        <time>2021-07-20T11:30:09Z</time>
      </trkpt>
      <trkpt lat="48.92876" lon="7.89581">
        <ele>158.75</ele>
        <time>2021-07-20T11:30:10Z</time>
      </trkpt>
      <trkpt lat="48.92871" lon="7.89585">
        <ele>159.24</ele>
        <time>2021-07-20T11:30:11Z</time>
      </trkpt>
      <trkpt lat="48.92867" lon="7.89589">
        <ele>159.72</ele>
        <time>2021-07-20T11:30:12Z</time>
      </trkpt>
      <trkpt lat="48.92863" lon="7.89594">
        <ele>160.2</ele>
        <time>2021-07-20T11:30:13Z</time>
      </trkpt>
      <trkpt lat="48.9285" lon="7.89606">
        <ele>160.68</ele>
        <time>2021-07-20T11:30:16Z</time>
      </trkpt>
      <trkpt lat="48.92847" lon="7.89608">
        <ele>160.68</ele>
        <time>2021-07-20T11:30:17Z</time>
      </trkpt>
      <trkpt lat="48.92846" lon="7.89609">
        <ele>160.68</ele>
        <time>2021-07-20T11:30:18Z</time>
      </trkpt>
      <trkpt lat="48.92847" lon="7.89618">
        <ele>160.68</ele>
        <time>2021-07-20T11:30:19Z</time>
      </trkpt>
      <trkpt lat="48.92849" lon="7.8962">
        <ele>160.68</ele>
        <time>2021-07-20T11:30:20Z</time>
      </trkpt>
      <trkpt lat="48.92862" lon="7.89636">
        <ele>159.72</ele>
        <time>2021-07-20T11:30:32Z</time>
      </trkpt>
      <trkpt lat="48.92862" lon="7.89636">
        <ele>159.72</ele>
        <time>2021-07-20T11:35:31Z</time>
      </trkpt>
      <trkpt lat="48.92862" lon="7.89636">
        <ele>159.24</ele>
        <time>2021-07-20T11:39:36Z</time>
      </trkpt>
      <trkpt lat="48.92862" lon="7.89636">
        <ele>158.75</ele>
        <time>2021-07-20T11:42:11Z</time>
      </trkpt>
      <trkpt lat="48.92862" lon="7.89636">
        <ele>158.27</ele>
        <time>2021-07-20T11:45:50Z</time>
      </trkpt>
      <trkpt lat="48.92862" lon="7.89636">
        <ele>158.27</ele>
        <time>2021-07-20T11:48:15Z</time>
      </trkpt>
      <trkpt lat="48.92862" lon="7.89636">
        <ele>158.27</ele>
        <time>2021-07-20T11:50:47Z</time>
      </trkpt>
      <trkpt lat="48.92862" lon="7.89636">
        <ele>158.27</ele>
        <time>2021-07-20T11:53:45Z</time>
      </trkpt>
      <trkpt lat="48.92862" lon="7.89636">
        <ele>158.75</ele>
        <time>2021-07-20T11:56:10Z</time>
      </trkpt>
      <trkpt lat="48.92868" lon="7.89639">
        <ele>158.27</ele>
        <time>2021-07-20T11:56:24Z</time>
      </trkpt>
      <trkpt lat="48.92888" lon="7.89594">
        <ele>158.27</ele>
        <time>2021-07-20T11:56:40Z</time>
      </trkpt>
      <trkpt lat="48.92891" lon="7.89588">
        <ele>157.79</ele>
        <time>2021-07-20T11:56:51Z</time>
      </trkpt>
      <trkpt lat="48.92898" lon="7.89586">
        <ele>157.79</ele>
        <time>2021-07-20T11:56:52Z</time>
      </trkpt>
      <trkpt lat="48.92898" lon="7.89586">
        <ele>157.79</ele>
        <time>2021-07-20T11:56:53Z</time>
      </trkpt>
      <trkpt lat="48.92902" lon="7.89594">
        <ele>157.79</ele>
        <time>2021-07-20T11:56:54Z</time>
      </trkpt>
      <trkpt lat="48.92902" lon="7.89594">
        <ele>157.79</ele>
        <time>2021-07-20T11:56:55Z</time>
      </trkpt>
      <trkpt lat="48.92903" lon="7.89598">
        <ele>157.79</ele>
        <time>2021-07-20T11:56:56Z</time>
      </trkpt>
      <trkpt lat="48.92905" lon="7.89602">
        <ele>157.79</ele>
        <time>2021-07-20T11:56:57Z</time>
      </trkpt>
      <trkpt lat="48.9291" lon="7.89615">
        <ele>157.79</ele>
        <time>2021-07-20T11:57:00Z</time>
      </trkpt>
      <trkpt lat="48.92912" lon="7.8962">
        <ele>157.79</ele>
        <time>2021-07-20T11:57:01Z</time>
      </trkpt>
      <trkpt lat="48.92918" lon="7.89636">
        <ele>158.27</ele>
        <time>2021-07-20T11:57:04Z</time>
      </trkpt>
      <trkpt lat="48.9292" lon="7.89641">
        <ele>158.27</ele>
        <time>2021-07-20T11:57:05Z</time>
      </trkpt>
      <trkpt lat="48.92922" lon="7.89647">
        <ele>158.27</ele>
        <time>2021-07-20T11:57:06Z</time>
      </trkpt>
      <trkpt lat="48.92925" lon="7.8965">
        <ele>158.27</ele>
        <time>2021-07-20T11:57:07Z</time>
      </trkpt>
      <trkpt lat="48.92929" lon="7.89651">
        <ele>157.79</ele>
        <time>2021-07-20T11:57:08Z</time>
      </trkpt>
      <trkpt lat="48.92933" lon="7.89653">
        <ele>157.79</ele>
        <time>2021-07-20T11:57:09Z</time>
      </trkpt>
      <trkpt lat="48.92936" lon="7.89653">
        <ele>157.79</ele>
        <time>2021-07-20T11:57:10Z</time>
      </trkpt>
      <trkpt lat="48.9294" lon="7.89652">
        <ele>157.79</ele>
        <time>2021-07-20T11:57:11Z</time>
      </trkpt>
      <trkpt lat="48.92944" lon="7.89651">
        <ele>157.31</ele>
        <time>2021-07-20T11:57:12Z</time>
      </trkpt>
      <trkpt lat="48.92951" lon="7.89663">
        <ele>156.83</ele>
        <time>2021-07-20T11:57:13Z</time>
      </trkpt>
      <trkpt lat="48.92953" lon="7.89669">
        <ele>156.83</ele>
        <time>2021-07-20T11:57:14Z</time>
      </trkpt>
      <trkpt lat="48.92955" lon="7.89675">
        <ele>156.35</ele>
        <time>2021-07-20T11:57:15Z</time>
      </trkpt>
      <trkpt lat="48.92999" lon="7.8979">
        <ele>150.58</ele>
        <time>2021-07-20T11:57:29Z</time>
      </trkpt>
      <trkpt lat="48.93021" lon="7.89864">
        <ele>149.14</ele>
        <time>2021-07-20T11:57:39Z</time>
      </trkpt>
      <trkpt lat="48.92994" lon="7.89898">
        <ele>150.1</ele>
        <time>2021-07-20T11:57:50Z</time>
      </trkpt>
      <trkpt lat="48.92961" lon="7.89897">
        <ele>151.54</ele>
        <time>2021-07-20T11:58:04Z</time>
      </trkpt>
      <trkpt lat="48.92963" lon="7.89918">
        <ele>151.06</ele>
        <time>2021-07-20T11:58:15Z</time>
      </trkpt>
      <trkpt lat="48.92967" lon="7.89916">
        <ele>151.06</ele>
        <time>2021-07-20T11:58:18Z</time>
      </trkpt>
      <trkpt lat="48.92977" lon="7.89919">
        <ele>151.06</ele>
        <time>2021-07-20T11:58:23Z</time>
      </trkpt>
      <trkpt lat="48.9299" lon="7.89908">
        <ele>151.54</ele>
        <time>2021-07-20T11:58:38Z</time>
      </trkpt>
      <trkpt lat="48.9299" lon="7.89906">
        <ele>151.54</ele>
        <time>2021-07-20T12:05:10Z</time>
      </trkpt>
      <trkpt lat="48.9299" lon="7.89904">
        <ele>152.51</ele>
        <time>2021-07-20T12:14:07Z</time>
      </trkpt>
      <trkpt lat="48.9299" lon="7.89903">
        <ele>152.99</ele>
        <time>2021-07-20T12:19:21Z</time>
      </trkpt>
      <trkpt lat="48.92991" lon="7.89903">
        <ele>152.03</ele>
        <time>2021-07-20T12:26:35Z</time>
      </trkpt>
      <trkpt lat="48.92992" lon="7.89903">
        <ele>152.03</ele>
        <time>2021-07-20T12:30:41Z</time>
      </trkpt>
      <trkpt lat="48.92992" lon="7.89903">
        <ele>152.03</ele>
        <time>2021-07-20T12:33:24Z</time>
      </trkpt>
      <trkpt lat="48.92993" lon="7.89903">
        <ele>152.03</ele>
        <time>2021-07-20T12:36:07Z</time>
      </trkpt>
      <trkpt lat="48.92993" lon="7.89904">
        <ele>151.54</ele>
        <time>2021-07-20T12:38:54Z</time>
      </trkpt>
      <trkpt lat="48.92994" lon="7.89896">
        <ele>151.54</ele>
        <time>2021-07-20T12:39:51Z</time>
      </trkpt>
      <trkpt lat="48.92996" lon="7.89882">
        <ele>151.54</ele>
        <time>2021-07-20T12:39:58Z</time>
      </trkpt>
      <trkpt lat="48.93002" lon="7.89882">
        <ele>151.54</ele>
        <time>2021-07-20T12:40:12Z</time>
      </trkpt>
      <trkpt lat="48.93" lon="7.89883">
        <ele>151.54</ele>
        <time>2021-07-20T12:40:20Z</time>
      </trkpt>
      <trkpt lat="48.93004" lon="7.89896">
        <ele>151.54</ele>
        <time>2021-07-20T12:40:26Z</time>
      </trkpt>
      <trkpt lat="48.93015" lon="7.8989">
        <ele>151.06</ele>
        <time>2021-07-20T12:40:31Z</time>
      </trkpt>
      <trkpt lat="48.93019" lon="7.8986">
        <ele>151.06</ele>
        <time>2021-07-20T12:40:44Z</time>
      </trkpt>
      <trkpt lat="48.92994" lon="7.89776">
        <ele>153.47</ele>
        <time>2021-07-20T12:40:56Z</time>
      </trkpt>
      <trkpt lat="48.92955" lon="7.89674">
        <ele>158.75</ele>
        <time>2021-07-20T12:41:10Z</time>
      </trkpt>
      <trkpt lat="48.9295" lon="7.89662">
        <ele>158.75</ele>
        <time>2021-07-20T12:41:20Z</time>
      </trkpt>
      <trkpt lat="48.92947" lon="7.89654">
        <ele>158.75</ele>
        <time>2021-07-20T12:41:24Z</time>
      </trkpt>
      <trkpt lat="48.9295" lon="7.89643">
        <ele>158.75</ele>
        <time>2021-07-20T12:41:25Z</time>
      </trkpt>
      <trkpt lat="48.92953" lon="7.89638">
        <ele>158.75</ele>
        <time>2021-07-20T12:41:26Z</time>
      </trkpt>
      <trkpt lat="48.92956" lon="7.89632">
        <ele>159.24</ele>
        <time>2021-07-20T12:41:27Z</time>
      </trkpt>
      <trkpt lat="48.92957" lon="7.89632">
        <ele>159.24</ele>
        <time>2021-07-20T12:41:28Z</time>
      </trkpt>
      <trkpt lat="48.92958" lon="7.89603">
        <ele>159.72</ele>
        <time>2021-07-20T12:41:29Z</time>
      </trkpt>
      <trkpt lat="48.92963" lon="7.89599">
        <ele>159.72</ele>
        <time>2021-07-20T12:41:30Z</time>
      </trkpt>
      <trkpt lat="48.9297" lon="7.89594">
        <ele>159.72</ele>
        <time>2021-07-20T12:41:31Z</time>
      </trkpt>
      <trkpt lat="48.92984" lon="7.89583">
        <ele>160.2</ele>
        <time>2021-07-20T12:41:32Z</time>
      </trkpt>
      <trkpt lat="48.93026" lon="7.89545">
        <ele>164.04</ele>
        <time>2021-07-20T12:41:39Z</time>
      </trkpt>
      <trkpt lat="48.93031" lon="7.89535">
        <ele>164.04</ele>
        <time>2021-07-20T12:41:40Z</time>
      </trkpt>
      <trkpt lat="48.93037" lon="7.89526">
        <ele>164.52</ele>
        <time>2021-07-20T12:41:41Z</time>
      </trkpt>
      <trkpt lat="48.93042" lon="7.89516">
        <ele>164.52</ele>
        <time>2021-07-20T12:41:42Z</time>
      </trkpt>
      <trkpt lat="48.93045" lon="7.89504">
        <ele>165</ele>
        <time>2021-07-20T12:41:43Z</time>
      </trkpt>
      <trkpt lat="48.93049" lon="7.89492">
        <ele>165</ele>
        <time>2021-07-20T12:41:44Z</time>
      </trkpt>
      <trkpt lat="48.93096" lon="7.89247">
        <ele>161.64</ele>
        <time>2021-07-20T12:42:01Z</time>
      </trkpt>
      <trkpt lat="48.93151" lon="7.88956">
        <ele>157.31</ele>
        <time>2021-07-20T12:42:21Z</time>
      </trkpt>
      <trkpt lat="48.93214" lon="7.88664">
        <ele>153.95</ele>
        <time>2021-07-20T12:42:42Z</time>
      </trkpt>
      <trkpt lat="48.9328" lon="7.88553">
        <ele>154.43</ele>
        <time>2021-07-20T12:42:52Z</time>
      </trkpt>
      <trkpt lat="48.93333" lon="7.88484">
        <ele>152.99</ele>
        <time>2021-07-20T12:43:02Z</time>
      </trkpt>
      <trkpt lat="48.93349" lon="7.88465">
        <ele>152.99</ele>
        <time>2021-07-20T12:43:15Z</time>
      </trkpt>
      <trkpt lat="48.93364" lon="7.88448">
        <ele>152.99</ele>
        <time>2021-07-20T12:43:25Z</time>
      </trkpt>
      <trkpt lat="48.93379" lon="7.88429">
        <ele>152.99</ele>
        <time>2021-07-20T12:43:38Z</time>
      </trkpt>
      <trkpt lat="48.93394" lon="7.8841">
        <ele>152.03</ele>
        <time>2021-07-20T12:43:52Z</time>
      </trkpt>
      <trkpt lat="48.93411" lon="7.88393">
        <ele>151.54</ele>
        <time>2021-07-20T12:45:01Z</time>
      </trkpt>
      <trkpt lat="48.93435" lon="7.88374">
        <ele>150.58</ele>
        <time>2021-07-20T12:45:07Z</time>
      </trkpt>
      <trkpt lat="48.9344" lon="7.88374">
        <ele>150.58</ele>
        <time>2021-07-20T12:45:08Z</time>
      </trkpt>
      <trkpt lat="48.93445" lon="7.88374">
        <ele>150.58</ele>
        <time>2021-07-20T12:45:09Z</time>
      </trkpt>
      <trkpt lat="48.93449" lon="7.88374">
        <ele>150.1</ele>
        <time>2021-07-20T12:45:10Z</time>
      </trkpt>
      <trkpt lat="48.93454" lon="7.88375">
        <ele>150.1</ele>
        <time>2021-07-20T12:45:11Z</time>
      </trkpt>
      <trkpt lat="48.93462" lon="7.88377">
        <ele>149.62</ele>
        <time>2021-07-20T12:45:13Z</time>
      </trkpt>
      <trkpt lat="48.93475" lon="7.88383">
        <ele>149.14</ele>
        <time>2021-07-20T12:45:16Z</time>
      </trkpt>
      <trkpt lat="48.9348" lon="7.88385">
        <ele>148.66</ele>
        <time>2021-07-20T12:45:17Z</time>
      </trkpt>
      <trkpt lat="48.93551" lon="7.88413">
        <ele>147.22</ele>
        <time>2021-07-20T12:45:29Z</time>
      </trkpt>
      <trkpt lat="48.9366" lon="7.88421">
        <ele>149.14</ele>
        <time>2021-07-20T12:45:48Z</time>
      </trkpt>
      <trkpt lat="48.937" lon="7.88423">
        <ele>149.14</ele>
        <time>2021-07-20T12:45:56Z</time>
      </trkpt>
      <trkpt lat="48.93705" lon="7.88424">
        <ele>150.1</ele>
        <time>2021-07-20T12:45:57Z</time>
      </trkpt>
      <trkpt lat="48.93709" lon="7.88425">
        <ele>150.58</ele>
        <time>2021-07-20T12:45:58Z</time>
      </trkpt>
      <trkpt lat="48.93713" lon="7.88426">
        <ele>151.06</ele>
        <time>2021-07-20T12:45:59Z</time>
      </trkpt>
      <trkpt lat="48.93718" lon="7.88428">
        <ele>151.06</ele>
        <time>2021-07-20T12:46:00Z</time>
      </trkpt>
      <trkpt lat="48.93733" lon="7.88431">
        <ele>150.58</ele>
        <time>2021-07-20T12:46:03Z</time>
      </trkpt>
      <trkpt lat="48.93738" lon="7.88432">
        <ele>150.58</ele>
        <time>2021-07-20T12:46:04Z</time>
      </trkpt>
      <trkpt lat="48.93813" lon="7.88443">
        <ele>146.74</ele>
        <time>2021-07-20T12:46:16Z</time>
      </trkpt>
      <trkpt lat="48.93914" lon="7.8846">
        <ele>147.7</ele>
        <time>2021-07-20T12:46:27Z</time>
      </trkpt>
      <trkpt lat="48.94042" lon="7.88504">
        <ele>155.87</ele>
        <time>2021-07-20T12:46:41Z</time>
      </trkpt>
      <trkpt lat="48.94171" lon="7.88587">
        <ele>165.96</ele>
        <time>2021-07-20T12:46:56Z</time>
      </trkpt>
      <trkpt lat="48.94221" lon="7.8865">
        <ele>168.85</ele>
        <time>2021-07-20T12:47:02Z</time>
      </trkpt>
      <trkpt lat="48.94267" lon="7.88792">
        <ele>169.33</ele>
        <time>2021-07-20T12:47:11Z</time>
      </trkpt>
      <trkpt lat="48.94299" lon="7.88881">
        <ele>170.77</ele>
        <time>2021-07-20T12:47:15Z</time>
      </trkpt>
      <trkpt lat="48.94299" lon="7.88881">
        <ele>171.25</ele>
        <time>2021-07-20T12:47:16Z</time>
      </trkpt>
      <trkpt lat="48.94315" lon="7.88911">
        <ele>171.73</ele>
        <time>2021-07-20T12:47:17Z</time>
      </trkpt>
      <trkpt lat="48.94403" lon="7.89042">
        <ele>179.42</ele>
        <time>2021-07-20T12:47:28Z</time>
      </trkpt>
      <trkpt lat="48.94415" lon="7.8906">
        <ele>180.87</ele>
        <time>2021-07-20T12:47:34Z</time>
      </trkpt>
      <trkpt lat="48.94429" lon="7.8908">
        <ele>182.31</ele>
        <time>2021-07-20T12:48:03Z</time>
      </trkpt>
      <trkpt lat="48.94476" lon="7.89151">
        <ele>184.23</ele>
        <time>2021-07-20T12:48:14Z</time>
      </trkpt>
      <trkpt lat="48.945" lon="7.89189">
        <ele>184.71</ele>
        <time>2021-07-20T12:48:20Z</time>
      </trkpt>
      <trkpt lat="48.94503" lon="7.89194">
        <ele>184.71</ele>
        <time>2021-07-20T12:48:21Z</time>
      </trkpt>
      <trkpt lat="48.94516" lon="7.89216">
        <ele>184.71</ele>
        <time>2021-07-20T12:48:26Z</time>
      </trkpt>
      <trkpt lat="48.94522" lon="7.89225">
        <ele>185.19</ele>
        <time>2021-07-20T12:48:28Z</time>
      </trkpt>
      <trkpt lat="48.94525" lon="7.89231">
        <ele>185.67</ele>
        <time>2021-07-20T12:48:29Z</time>
      </trkpt>
      <trkpt lat="48.94529" lon="7.89237">
        <ele>185.67</ele>
        <time>2021-07-20T12:48:30Z</time>
      </trkpt>
      <trkpt lat="48.94584" lon="7.89331">
        <ele>185.19</ele>
        <time>2021-07-20T12:48:41Z</time>
      </trkpt>
      <trkpt lat="48.94662" lon="7.89432">
        <ele>178.94</ele>
        <time>2021-07-20T12:48:54Z</time>
      </trkpt>
      <trkpt lat="48.94732" lon="7.89506">
        <ele>172.69</ele>
        <time>2021-07-20T12:49:03Z</time>
      </trkpt>
      <trkpt lat="48.94867" lon="7.89663">
        <ele>162.6</ele>
        <time>2021-07-20T12:49:16Z</time>
      </trkpt>
      <trkpt lat="48.94968" lon="7.89881">
        <ele>154.43</ele>
        <time>2021-07-20T12:49:28Z</time>
      </trkpt>
      <trkpt lat="48.95054" lon="7.90023">
        <ele>149.62</ele>
        <time>2021-07-20T12:49:36Z</time>
      </trkpt>
      <trkpt lat="48.95068" lon="7.90037">
        <ele>149.62</ele>
        <time>2021-07-20T12:49:37Z</time>
      </trkpt>
      <trkpt lat="48.95081" lon="7.9005">
        <ele>150.1</ele>
        <time>2021-07-20T12:49:38Z</time>
      </trkpt>
      <trkpt lat="48.95097" lon="7.90058">
        <ele>150.58</ele>
        <time>2021-07-20T12:49:39Z</time>
      </trkpt>
      <trkpt lat="48.95113" lon="7.90067">
        <ele>150.58</ele>
        <time>2021-07-20T12:49:40Z</time>
      </trkpt>
      <trkpt lat="48.95242" lon="7.90148">
        <ele>149.14</ele>
        <time>2021-07-20T12:49:48Z</time>
      </trkpt>
      <trkpt lat="48.95254" lon="7.90163">
        <ele>149.62</ele>
        <time>2021-07-20T12:49:49Z</time>
      </trkpt>
      <trkpt lat="48.95267" lon="7.90179">
        <ele>151.06</ele>
        <time>2021-07-20T12:49:50Z</time>
      </trkpt>
      <trkpt lat="48.9528" lon="7.90195">
        <ele>152.51</ele>
        <time>2021-07-20T12:49:51Z</time>
      </trkpt>
      <trkpt lat="48.9529" lon="7.90215">
        <ele>152.99</ele>
        <time>2021-07-20T12:49:52Z</time>
      </trkpt>
      <trkpt lat="48.95403" lon="7.90476">
        <ele>164.52</ele>
        <time>2021-07-20T12:50:06Z</time>
      </trkpt>
      <trkpt lat="48.95426" lon="7.90592">
        <ele>173.66</ele>
        <time>2021-07-20T12:50:12Z</time>
      </trkpt>
      <trkpt lat="48.95426" lon="7.90592">
        <ele>174.62</ele>
        <time>2021-07-20T12:50:13Z</time>
      </trkpt>
      <trkpt lat="48.95424" lon="7.90625">
        <ele>174.14</ele>
        <time>2021-07-20T12:50:14Z</time>
      </trkpt>
      <trkpt lat="48.95424" lon="7.90625">
        <ele>175.1</ele>
        <time>2021-07-20T12:50:15Z</time>
      </trkpt>
      <trkpt lat="48.95421" lon="7.90639">
        <ele>175.58</ele>
        <time>2021-07-20T12:50:16Z</time>
      </trkpt>
      <trkpt lat="48.95417" lon="7.90654">
        <ele>176.54</ele>
        <time>2021-07-20T12:50:17Z</time>
      </trkpt>
      <trkpt lat="48.95412" lon="7.90669">
        <ele>177.98</ele>
        <time>2021-07-20T12:50:18Z</time>
      </trkpt>
      <trkpt lat="48.95405" lon="7.90684">
        <ele>178.46</ele>
        <time>2021-07-20T12:50:19Z</time>
      </trkpt>
      <trkpt lat="48.95304" lon="7.90913">
        <ele>178.94</ele>
        <time>2021-07-20T12:50:33Z</time>
      </trkpt>
      <trkpt lat="48.95259" lon="7.9109">
        <ele>179.9</ele>
        <time>2021-07-20T12:50:44Z</time>
      </trkpt>
      <trkpt lat="48.95227" lon="7.91276">
        <ele>179.9</ele>
        <time>2021-07-20T12:50:56Z</time>
      </trkpt>
      <trkpt lat="48.95193" lon="7.91362">
        <ele>178.46</ele>
        <time>2021-07-20T12:51:05Z</time>
      </trkpt>
      <trkpt lat="48.95182" lon="7.91386">
        <ele>177.5</ele>
        <time>2021-07-20T12:51:07Z</time>
      </trkpt>
      <trkpt lat="48.95182" lon="7.91386">
        <ele>177.5</ele>
        <time>2021-07-20T12:51:08Z</time>
      </trkpt>
      <trkpt lat="48.95183" lon="7.91392">
        <ele>176.54</ele>
        <time>2021-07-20T12:51:09Z</time>
      </trkpt>
      <trkpt lat="48.95185" lon="7.914">
        <ele>176.06</ele>
        <time>2021-07-20T12:51:10Z</time>
      </trkpt>
      <trkpt lat="48.95187" lon="7.91409">
        <ele>175.58</ele>
        <time>2021-07-20T12:51:11Z</time>
      </trkpt>
      <trkpt lat="48.9519" lon="7.91415">
        <ele>174.62</ele>
        <time>2021-07-20T12:51:12Z</time>
      </trkpt>
      <trkpt lat="48.95194" lon="7.91423">
        <ele>174.14</ele>
        <time>2021-07-20T12:51:13Z</time>
      </trkpt>
      <trkpt lat="48.95262" lon="7.91521">
        <ele>163.56</ele>
        <time>2021-07-20T12:51:24Z</time>
      </trkpt>
      <trkpt lat="48.95338" lon="7.91643">
        <ele>156.83</ele>
        <time>2021-07-20T12:51:33Z</time>
      </trkpt>
      <trkpt lat="48.95365" lon="7.91688">
        <ele>157.31</ele>
        <time>2021-07-20T12:51:36Z</time>
      </trkpt>
      <trkpt lat="48.95374" lon="7.917">
        <ele>156.35</ele>
        <time>2021-07-20T12:51:37Z</time>
      </trkpt>
      <trkpt lat="48.95383" lon="7.91712">
        <ele>157.79</ele>
        <time>2021-07-20T12:51:38Z</time>
      </trkpt>
      <trkpt lat="48.95471" lon="7.91771">
        <ele>162.12</ele>
        <time>2021-07-20T12:51:46Z</time>
      </trkpt>
      <trkpt lat="48.95506" lon="7.91786">
        <ele>163.08</ele>
        <time>2021-07-20T12:51:49Z</time>
      </trkpt>
      <trkpt lat="48.95517" lon="7.91797">
        <ele>165.48</ele>
        <time>2021-07-20T12:51:50Z</time>
      </trkpt>
      <trkpt lat="48.95527" lon="7.91806">
        <ele>167.89</ele>
        <time>2021-07-20T12:51:51Z</time>
      </trkpt>
      <trkpt lat="48.95538" lon="7.91816">
        <ele>169.33</ele>
        <time>2021-07-20T12:51:52Z</time>
      </trkpt>
      <trkpt lat="48.95545" lon="7.91826">
        <ele>171.25</ele>
        <time>2021-07-20T12:51:53Z</time>
      </trkpt>
      <trkpt lat="48.95553" lon="7.91837">
        <ele>172.21</ele>
        <time>2021-07-20T12:51:54Z</time>
      </trkpt>
      <trkpt lat="48.95571" lon="7.91861">
        <ele>175.1</ele>
        <time>2021-07-20T12:51:57Z</time>
      </trkpt>
      <trkpt lat="48.95577" lon="7.9187">
        <ele>175.58</ele>
        <time>2021-07-20T12:51:58Z</time>
      </trkpt>
      <trkpt lat="48.95651" lon="7.91971">
        <ele>181.35</ele>
        <time>2021-07-20T12:52:08Z</time>
      </trkpt>
      <trkpt lat="48.95769" lon="7.92136">
        <ele>190.96</ele>
        <time>2021-07-20T12:52:20Z</time>
      </trkpt>
      <trkpt lat="48.95848" lon="7.9222">
        <ele>196.73</ele>
        <time>2021-07-20T12:52:29Z</time>
      </trkpt>
      <trkpt lat="48.95851" lon="7.92224">
        <ele>197.21</ele>
        <time>2021-07-20T12:52:30Z</time>
      </trkpt>
      <trkpt lat="48.9585" lon="7.92247">
        <ele>197.69</ele>
        <time>2021-07-20T12:52:32Z</time>
      </trkpt>
      <trkpt lat="48.95857" lon="7.92252">
        <ele>197.69</ele>
        <time>2021-07-20T12:52:33Z</time>
      </trkpt>
      <trkpt lat="48.9586" lon="7.92254">
        <ele>197.69</ele>
        <time>2021-07-20T12:52:34Z</time>
      </trkpt>
      <trkpt lat="48.95874" lon="7.92249">
        <ele>197.69</ele>
        <time>2021-07-20T12:52:36Z</time>
      </trkpt>
      <trkpt lat="48.95951" lon="7.92298">
        <ele>194.32</ele>
        <time>2021-07-20T12:52:46Z</time>
      </trkpt>
      <trkpt lat="48.96085" lon="7.92381">
        <ele>184.71</ele>
        <time>2021-07-20T12:52:57Z</time>
      </trkpt>
      <trkpt lat="48.96185" lon="7.92493">
        <ele>180.38</ele>
        <time>2021-07-20T12:53:05Z</time>
      </trkpt>
      <trkpt lat="48.96334" lon="7.92683">
        <ele>177.98</ele>
        <time>2021-07-20T12:53:16Z</time>
      </trkpt>
      <trkpt lat="48.96531" lon="7.92824">
        <ele>187.59</ele>
        <time>2021-07-20T12:53:28Z</time>
      </trkpt>
      <trkpt lat="48.96628" lon="7.9289">
        <ele>190</ele>
        <time>2021-07-20T12:53:36Z</time>
      </trkpt>
      <trkpt lat="48.9664" lon="7.92898">
        <ele>190</ele>
        <time>2021-07-20T12:53:38Z</time>
      </trkpt>
      <trkpt lat="48.96643" lon="7.929">
        <ele>190</ele>
        <time>2021-07-20T12:53:39Z</time>
      </trkpt>
      <trkpt lat="48.96656" lon="7.92921">
        <ele>190</ele>
        <time>2021-07-20T12:53:44Z</time>
      </trkpt>
      <trkpt lat="48.96658" lon="7.92917">
        <ele>189.52</ele>
        <time>2021-07-20T12:53:45Z</time>
      </trkpt>
      <trkpt lat="48.9666" lon="7.92913">
        <ele>189.52</ele>
        <time>2021-07-20T12:53:46Z</time>
      </trkpt>
      <trkpt lat="48.96662" lon="7.92908">
        <ele>189.52</ele>
        <time>2021-07-20T12:53:47Z</time>
      </trkpt>
      <trkpt lat="48.96662" lon="7.92907">
        <ele>190</ele>
        <time>2021-07-20T12:53:48Z</time>
      </trkpt>
      <trkpt lat="48.9666" lon="7.92889">
        <ele>190</ele>
        <time>2021-07-20T12:53:49Z</time>
      </trkpt>
      <trkpt lat="48.96663" lon="7.92883">
        <ele>190</ele>
        <time>2021-07-20T12:53:50Z</time>
      </trkpt>
      <trkpt lat="48.96667" lon="7.92876">
        <ele>190</ele>
        <time>2021-07-20T12:53:51Z</time>
      </trkpt>
      <trkpt lat="48.96671" lon="7.92869">
        <ele>190</ele>
        <time>2021-07-20T12:53:52Z</time>
      </trkpt>
      <trkpt lat="48.96676" lon="7.9286">
        <ele>190</ele>
        <time>2021-07-20T12:53:53Z</time>
      </trkpt>
      <trkpt lat="48.9668" lon="7.92851">
        <ele>190</ele>
        <time>2021-07-20T12:53:54Z</time>
      </trkpt>
      <trkpt lat="48.96773" lon="7.92735">
        <ele>190.48</ele>
        <time>2021-07-20T12:54:06Z</time>
      </trkpt>
      <trkpt lat="48.9687" lon="7.92629">
        <ele>189.04</ele>
        <time>2021-07-20T12:54:18Z</time>
      </trkpt>
      <trkpt lat="48.96893" lon="7.92605">
        <ele>188.56</ele>
        <time>2021-07-20T12:54:22Z</time>
      </trkpt>
      <trkpt lat="48.96899" lon="7.92601">
        <ele>188.56</ele>
        <time>2021-07-20T12:54:23Z</time>
      </trkpt>
      <trkpt lat="48.96906" lon="7.92597">
        <ele>188.08</ele>
        <time>2021-07-20T12:54:24Z</time>
      </trkpt>
      <trkpt lat="48.96913" lon="7.92592">
        <ele>188.08</ele>
        <time>2021-07-20T12:54:25Z</time>
      </trkpt>
      <trkpt lat="48.9692" lon="7.9259">
        <ele>188.08</ele>
        <time>2021-07-20T12:54:26Z</time>
      </trkpt>
      <trkpt lat="48.97015" lon="7.92565">
        <ele>188.08</ele>
        <time>2021-07-20T12:54:36Z</time>
      </trkpt>
      <trkpt lat="48.97108" lon="7.92539">
        <ele>183.75</ele>
        <time>2021-07-20T12:54:45Z</time>
      </trkpt>
      <trkpt lat="48.9712" lon="7.92543">
        <ele>183.27</ele>
        <time>2021-07-20T12:54:46Z</time>
      </trkpt>
      <trkpt lat="48.97131" lon="7.92547">
        <ele>182.79</ele>
        <time>2021-07-20T12:54:47Z</time>
      </trkpt>
      <trkpt lat="48.97141" lon="7.9255">
        <ele>181.83</ele>
        <time>2021-07-20T12:54:48Z</time>
      </trkpt>
      <trkpt lat="48.97153" lon="7.92556">
        <ele>181.83</ele>
        <time>2021-07-20T12:54:49Z</time>
      </trkpt>
      <trkpt lat="48.97164" lon="7.92563">
        <ele>181.83</ele>
        <time>2021-07-20T12:54:50Z</time>
      </trkpt>
      <trkpt lat="48.97239" lon="7.92609">
        <ele>187.11</ele>
        <time>2021-07-20T12:54:57Z</time>
      </trkpt>
      <trkpt lat="48.97258" lon="7.92611">
        <ele>188.56</ele>
        <time>2021-07-20T12:54:58Z</time>
      </trkpt>
      <trkpt lat="48.97268" lon="7.92611">
        <ele>189.52</ele>
        <time>2021-07-20T12:54:59Z</time>
      </trkpt>
      <trkpt lat="48.97278" lon="7.9261">
        <ele>190</ele>
        <time>2021-07-20T12:55:00Z</time>
      </trkpt>
      <trkpt lat="48.97286" lon="7.92606">
        <ele>190</ele>
        <time>2021-07-20T12:55:01Z</time>
      </trkpt>
      <trkpt lat="48.97294" lon="7.92599">
        <ele>189.52</ele>
        <time>2021-07-20T12:55:02Z</time>
      </trkpt>
      <trkpt lat="48.97302" lon="7.92592">
        <ele>189.52</ele>
        <time>2021-07-20T12:55:03Z</time>
      </trkpt>
      <trkpt lat="48.9731" lon="7.92585">
        <ele>188.56</ele>
        <time>2021-07-20T12:55:04Z</time>
      </trkpt>
      <trkpt lat="48.9731" lon="7.92585">
        <ele>187.59</ele>
        <time>2021-07-20T12:55:05Z</time>
      </trkpt>
      <trkpt lat="48.97324" lon="7.92568">
        <ele>187.11</ele>
        <time>2021-07-20T12:55:06Z</time>
      </trkpt>
      <trkpt lat="48.9733" lon="7.92557">
        <ele>187.11</ele>
        <time>2021-07-20T12:55:07Z</time>
      </trkpt>
      <trkpt lat="48.9733" lon="7.92557">
        <ele>187.11</ele>
        <time>2021-07-20T12:55:08Z</time>
      </trkpt>
      <trkpt lat="48.97335" lon="7.92546">
        <ele>187.11</ele>
        <time>2021-07-20T12:55:09Z</time>
      </trkpt>
      <trkpt lat="48.97338" lon="7.92534">
        <ele>186.63</ele>
        <time>2021-07-20T12:55:10Z</time>
      </trkpt>
      <trkpt lat="48.97341" lon="7.9252">
        <ele>186.15</ele>
        <time>2021-07-20T12:55:11Z</time>
      </trkpt>
      <trkpt lat="48.97344" lon="7.92505">
        <ele>185.67</ele>
        <time>2021-07-20T12:55:12Z</time>
      </trkpt>
      <trkpt lat="48.97347" lon="7.92492">
        <ele>185.19</ele>
        <time>2021-07-20T12:55:13Z</time>
      </trkpt>
      <trkpt lat="48.97347" lon="7.92476">
        <ele>184.23</ele>
        <time>2021-07-20T12:55:14Z</time>
      </trkpt>
      <trkpt lat="48.97347" lon="7.9246">
        <ele>183.75</ele>
        <time>2021-07-20T12:55:15Z</time>
      </trkpt>
      <trkpt lat="48.97346" lon="7.92307">
        <ele>184.71</ele>
        <time>2021-07-20T12:55:26Z</time>
      </trkpt>
      <trkpt lat="48.97346" lon="7.92283">
        <ele>184.71</ele>
        <time>2021-07-20T12:55:33Z</time>
      </trkpt>
      <trkpt lat="48.97346" lon="7.92276">
        <ele>184.71</ele>
        <time>2021-07-20T12:55:34Z</time>
      </trkpt>
      <trkpt lat="48.97345" lon="7.92176">
        <ele>185.67</ele>
        <time>2021-07-20T12:55:42Z</time>
      </trkpt>
      <trkpt lat="48.97348" lon="7.92105">
        <ele>187.59</ele>
        <time>2021-07-20T12:55:47Z</time>
      </trkpt>
      <trkpt lat="48.9735" lon="7.92092">
        <ele>187.59</ele>
        <time>2021-07-20T12:55:48Z</time>
      </trkpt>
      <trkpt lat="48.97357" lon="7.92064">
        <ele>187.59</ele>
        <time>2021-07-20T12:55:49Z</time>
      </trkpt>
      <trkpt lat="48.97357" lon="7.92064">
        <ele>188.08</ele>
        <time>2021-07-20T12:55:50Z</time>
      </trkpt>
      <trkpt lat="48.97361" lon="7.92052">
        <ele>188.56</ele>
        <time>2021-07-20T12:55:51Z</time>
      </trkpt>
      <trkpt lat="48.97368" lon="7.92041">
        <ele>189.04</ele>
        <time>2021-07-20T12:55:52Z</time>
      </trkpt>
      <trkpt lat="48.97375" lon="7.9203">
        <ele>189.04</ele>
        <time>2021-07-20T12:55:53Z</time>
      </trkpt>
      <trkpt lat="48.97425" lon="7.91944">
        <ele>193.36</ele>
        <time>2021-07-20T12:56:00Z</time>
      </trkpt>
      <trkpt lat="48.97431" lon="7.9193">
        <ele>193.84</ele>
        <time>2021-07-20T12:56:01Z</time>
      </trkpt>
      <trkpt lat="48.97436" lon="7.91915">
        <ele>192.88</ele>
        <time>2021-07-20T12:56:02Z</time>
      </trkpt>
      <trkpt lat="48.97455" lon="7.91827">
        <ele>192.88</ele>
        <time>2021-07-20T12:56:09Z</time>
      </trkpt>
      <trkpt lat="48.97458" lon="7.91809">
        <ele>192.4</ele>
        <time>2021-07-20T12:56:13Z</time>
      </trkpt>
      <trkpt lat="48.97459" lon="7.91807">
        <ele>192.4</ele>
        <time>2021-07-20T12:56:14Z</time>
      </trkpt>
      <trkpt lat="48.97454" lon="7.9181">
        <ele>192.88</ele>
        <time>2021-07-20T12:56:25Z</time>
      </trkpt>
      <trkpt lat="48.97457" lon="7.91813">
        <ele>193.36</ele>
        <time>2021-07-20T12:56:39Z</time>
      </trkpt>
      <trkpt lat="48.97457" lon="7.91815">
        <ele>192.88</ele>
        <time>2021-07-20T12:56:41Z</time>
      </trkpt>
      <trkpt lat="48.97456" lon="7.9182">
        <ele>192.88</ele>
        <time>2021-07-20T12:56:42Z</time>
      </trkpt>
      <trkpt lat="48.97455" lon="7.91826">
        <ele>192.88</ele>
        <time>2021-07-20T12:56:43Z</time>
      </trkpt>
      <trkpt lat="48.97453" lon="7.91833">
        <ele>192.88</ele>
        <time>2021-07-20T12:56:44Z</time>
      </trkpt>
      <trkpt lat="48.9743" lon="7.91931">
        <ele>192.4</ele>
        <time>2021-07-20T12:56:52Z</time>
      </trkpt>
      <trkpt lat="48.97424" lon="7.91944">
        <ele>190.96</ele>
        <time>2021-07-20T12:56:53Z</time>
      </trkpt>
      <trkpt lat="48.97419" lon="7.91958">
        <ele>190.48</ele>
        <time>2021-07-20T12:56:54Z</time>
      </trkpt>
      <trkpt lat="48.97365" lon="7.92046">
        <ele>185.67</ele>
        <time>2021-07-20T12:57:02Z</time>
      </trkpt>
      <trkpt lat="48.97358" lon="7.92059">
        <ele>185.67</ele>
        <time>2021-07-20T12:57:03Z</time>
      </trkpt>
      <trkpt lat="48.97354" lon="7.92076">
        <ele>187.59</ele>
        <time>2021-07-20T12:57:04Z</time>
      </trkpt>
      <trkpt lat="48.97351" lon="7.92091">
        <ele>186.63</ele>
        <time>2021-07-20T12:57:05Z</time>
      </trkpt>
      <trkpt lat="48.97347" lon="7.92109">
        <ele>185.67</ele>
        <time>2021-07-20T12:57:06Z</time>
      </trkpt>
      <trkpt lat="48.97345" lon="7.92128">
        <ele>185.19</ele>
        <time>2021-07-20T12:57:07Z</time>
      </trkpt>
      <trkpt lat="48.97345" lon="7.92149">
        <ele>187.11</ele>
        <time>2021-07-20T12:57:08Z</time>
      </trkpt>
      <trkpt lat="48.97347" lon="7.9245">
        <ele>183.75</ele>
        <time>2021-07-20T12:57:21Z</time>
      </trkpt>
      <trkpt lat="48.97347" lon="7.92493">
        <ele>183.75</ele>
        <time>2021-07-20T12:57:23Z</time>
      </trkpt>
      <trkpt lat="48.97343" lon="7.92514">
        <ele>184.23</ele>
        <time>2021-07-20T12:57:24Z</time>
      </trkpt>
      <trkpt lat="48.97338" lon="7.92533">
        <ele>185.67</ele>
        <time>2021-07-20T12:57:25Z</time>
      </trkpt>
      <trkpt lat="48.97333" lon="7.92549">
        <ele>186.63</ele>
        <time>2021-07-20T12:57:26Z</time>
      </trkpt>
      <trkpt lat="48.97327" lon="7.92564">
        <ele>186.63</ele>
        <time>2021-07-20T12:57:27Z</time>
      </trkpt>
      <trkpt lat="48.97319" lon="7.92578">
        <ele>186.63</ele>
        <time>2021-07-20T12:57:28Z</time>
      </trkpt>
      <trkpt lat="48.97308" lon="7.92587">
        <ele>187.59</ele>
        <time>2021-07-20T12:57:29Z</time>
      </trkpt>
      <trkpt lat="48.97298" lon="7.92595">
        <ele>187.59</ele>
        <time>2021-07-20T12:57:30Z</time>
      </trkpt>
      <trkpt lat="48.97288" lon="7.92604">
        <ele>186.63</ele>
        <time>2021-07-20T12:57:31Z</time>
      </trkpt>
      <trkpt lat="48.97277" lon="7.9261">
        <ele>187.59</ele>
        <time>2021-07-20T12:57:32Z</time>
      </trkpt>
      <trkpt lat="48.97264" lon="7.92611">
        <ele>188.56</ele>
        <time>2021-07-20T12:57:33Z</time>
      </trkpt>
      <trkpt lat="48.9724" lon="7.92609">
        <ele>187.59</ele>
        <time>2021-07-20T12:57:34Z</time>
      </trkpt>
      <trkpt lat="48.97228" lon="7.92604">
        <ele>188.56</ele>
        <time>2021-07-20T12:57:35Z</time>
      </trkpt>
      <trkpt lat="48.97228" lon="7.92604">
        <ele>188.08</ele>
        <time>2021-07-20T12:57:36Z</time>
      </trkpt>
      <trkpt lat="48.97217" lon="7.92599">
        <ele>187.11</ele>
        <time>2021-07-20T12:57:37Z</time>
      </trkpt>
      <trkpt lat="48.97206" lon="7.92592">
        <ele>187.59</ele>
        <time>2021-07-20T12:57:38Z</time>
      </trkpt>
      <trkpt lat="48.9713" lon="7.92546">
        <ele>186.63</ele>
        <time>2021-07-20T12:57:44Z</time>
      </trkpt>
      <trkpt lat="48.97118" lon="7.92542">
        <ele>187.59</ele>
        <time>2021-07-20T12:57:45Z</time>
      </trkpt>
      <trkpt lat="48.97093" lon="7.92543">
        <ele>189.04</ele>
        <time>2021-07-20T12:57:46Z</time>
      </trkpt>
      <trkpt lat="48.97093" lon="7.92543">
        <ele>189.04</ele>
        <time>2021-07-20T12:57:47Z</time>
      </trkpt>
      <trkpt lat="48.9708" lon="7.92547">
        <ele>189.04</ele>
        <time>2021-07-20T12:57:48Z</time>
      </trkpt>
      <trkpt lat="48.96917" lon="7.92591">
        <ele>191.44</ele>
        <time>2021-07-20T12:58:02Z</time>
      </trkpt>
      <trkpt lat="48.96912" lon="7.92593">
        <ele>191.44</ele>
        <time>2021-07-20T12:58:04Z</time>
      </trkpt>
      <trkpt lat="48.96907" lon="7.92596">
        <ele>191.44</ele>
        <time>2021-07-20T12:58:05Z</time>
      </trkpt>
      <trkpt lat="48.96904" lon="7.92574">
        <ele>192.4</ele>
        <time>2021-07-20T12:58:11Z</time>
      </trkpt>
      <trkpt lat="48.96939" lon="7.92585">
        <ele>190</ele>
        <time>2021-07-20T12:58:23Z</time>
      </trkpt>
      <trkpt lat="48.96935" lon="7.9253">
        <ele>190</ele>
        <time>2021-07-20T12:58:31Z</time>
      </trkpt>
      <trkpt lat="48.96933" lon="7.92532">
        <ele>190</ele>
        <time>2021-07-20T12:58:45Z</time>
      </trkpt>
      <trkpt lat="48.96923" lon="7.92548">
        <ele>189.52</ele>
        <time>2021-07-20T12:58:56Z</time>
      </trkpt>
      <trkpt lat="48.96924" lon="7.92546">
        <ele>189.52</ele>
        <time>2021-07-20T12:59:01Z</time>
      </trkpt>
      <trkpt lat="48.96928" lon="7.92544">
        <ele>189.52</ele>
        <time>2021-07-20T12:59:16Z</time>
      </trkpt>
      <trkpt lat="48.96927" lon="7.92545">
        <ele>188.56</ele>
        <time>2021-07-20T13:05:41Z</time>
      </trkpt>
      <trkpt lat="48.96928" lon="7.92546">
        <ele>188.08</ele>
        <time>2021-07-20T13:14:09Z</time>
      </trkpt>
      <trkpt lat="48.9693" lon="7.92547">
        <ele>188.08</ele>
        <time>2021-07-20T13:22:56Z</time>
      </trkpt>
    </trkseg>
  </trk>
</gpx>